Time;durP1;ratioP1;P1;durP2;ratioP2;P2;SDS_P1;SDS_P2;PMS_P1;PMS_P2;Temp;Humidity;BMP_temperature;BMP_pressure;BME280_temperature;BME280_humidity;BME280_pressure;Samples;Min_cycle;Max_cycle;Signal;HPM_P1;HPM_P2
2021/12/29 00:00:44;;;;;;;8.27;2.77;;;9.00;99.90;;;8.65;70.76;96297.47;5009590;28;20068;-49
2021/12/29 00:03:12;;;;;;;7.83;2.27;;;9.10;99.90;;;8.65;70.82;96292.16;5009164;28;20387;-48
2021/12/29 00:05:40;;;;;;;6.20;1.80;;;9.00;99.90;;;8.69;70.79;96312.00;5008623;28;20051;-50
2021/12/29 00:08:08;;;;;;;6.37;2.20;;;9.00;99.90;;;8.75;70.55;96315.75;5008271;28;20098;-49
2021/12/29 00:10:36;;;;;;;5.07;1.90;;;9.00;99.90;;;8.71;70.60;96317.13;5010153;28;20046;-50
2021/12/29 00:13:05;;;;;;;11.77;2.40;;;9.00;99.90;;;8.69;70.70;96313.84;5009158;28;20042;-47
2021/12/29 00:15:34;;;;;;;6.53;1.63;;;9.00;99.90;;;8.61;70.51;96334.13;5008478;28;20049;-45
2021/12/29 00:18:03;;;;;;;7.40;1.80;;;8.90;99.90;;;8.66;70.35;96328.28;5007836;28;20054;-45
2021/12/29 00:20:31;;;;;;;8.40;1.47;;;9.00;99.90;;;8.70;70.28;96347.31;5009285;28;20064;-48
2021/12/29 00:23:04;;;;;;;5.90;2.47;;;8.90;99.90;;;8.71;70.17;96343.66;5008096;28;20260;-46
2021/12/29 00:25:32;;;;;;;6.60;1.40;;;9.10;99.90;;;8.74;69.86;96333.50;5007685;28;20045;-46
2021/12/29 00:28:01;;;;;;;5.33;1.83;;;9.00;99.90;;;8.62;69.93;96356.97;5008945;28;20091;-47
2021/12/29 00:30:31;;;;;;;5.33;1.30;;;9.00;99.90;;;8.59;69.95;96328.19;5009531;28;20042;-48
2021/12/29 00:33:00;;;;;;;2.93;1.60;;;9.00;99.90;;;8.71;69.97;96348.97;5006818;28;20050;-49
2021/12/29 00:35:48;;;;;;;3.07;1.20;;;9.00;99.90;;;8.69;70.01;96361.59;5006222;28;20053;-45
2021/12/29 00:38:35;;;;;;;4.30;1.20;;;9.00;99.90;;;8.70;70.19;96376.50;5012561;28;20060;-46
2021/12/29 00:41:06;;;;;;;5.30;1.93;;;9.00;99.90;;;8.74;69.92;96362.69;5008334;28;20454;-49
2021/12/29 00:43:57;;;;;;;2.27;0.70;;;9.00;99.90;;;8.76;70.42;96404.97;5025676;28;20066;-46
2021/12/29 00:46:53;;;;;;;4.68;1.35;;;9.00;99.90;;;8.65;71.07;96395.63;5008263;28;20068;-46
2021/12/29 00:49:30;;;;;;;3.00;1.07;;;8.90;99.90;;;8.56;70.98;96373.63;5008326;28;20041;-46
2021/12/29 00:52:00;;;;;;;5.37;2.30;;;8.90;99.90;;;8.52;71.02;96393.56;5008443;28;20041;-48
2021/12/29 00:54:29;;;;;;;4.23;1.63;;;8.90;99.90;;;8.51;71.48;96391.94;5007781;28;20052;-50
2021/12/29 00:56:56;;;;;;;5.13;1.30;;;8.90;99.90;;;8.48;71.43;96397.56;5007997;28;20060;-46
2021/12/29 00:59:24;;;;;;;3.93;1.20;;;8.90;99.90;;;8.50;71.61;96390.25;4989611;28;20038;-48
2021/12/29 01:01:53;;;;;;;4.10;2.13;;;8.90;99.90;;;8.53;71.49;96391.72;4987472;28;20378;-47
2021/12/29 01:04:22;;;;;;;6.40;1.10;;;8.90;99.90;;;8.47;71.57;96391.47;4987483;28;20070;-47
2021/12/29 01:06:50;;;;;;;6.00;1.80;;;8.80;99.90;;;8.47;71.49;96409.19;4987968;28;20414;-50
2021/12/29 01:09:18;;;;;;;3.27;1.13;;;8.90;99.90;;;8.44;71.64;96410.38;4989971;28;20222;-47
2021/12/29 01:11:46;;;;;;;6.30;1.70;;;8.80;99.90;;;8.47;71.54;96406.53;4988712;28;20256;-48
2021/12/29 01:14:21;;;;;;;4.53;1.63;;;8.80;99.90;;;8.36;71.84;96434.28;4986758;28;20253;-47
2021/12/29 01:16:50;;;;;;;3.27;1.23;;;8.80;99.90;;;8.35;71.60;96429.97;4987866;28;20050;-45
2021/12/29 01:19:29;;;;;;;3.00;1.20;;;8.80;99.90;;;8.35;71.39;96451.16;4987992;28;20421;-46
2021/12/29 01:22:01;;;;;;;2.97;1.27;;;8.80;99.90;;;8.40;71.36;96461.28;4987216;28;20268;-48
2021/12/29 01:24:30;;;;;;;5.07;1.83;;;8.80;99.90;;;8.32;70.73;96456.00;4987666;28;20066;-47
2021/12/29 01:26:59;;;;;;;2.87;1.47;;;8.80;99.90;;;8.33;71.08;96447.06;4988702;28;20044;-49
2021/12/29 01:29:28;;;;;;;6.93;1.50;;;8.80;99.90;;;8.34;70.87;96448.72;4986071;28;20341;-48
2021/12/29 01:31:59;;;;;;;4.73;1.23;;;8.80;99.90;;;8.32;70.60;96458.66;4988486;28;20268;-46
2021/12/29 01:34:27;;;;;;;4.40;1.27;;;8.80;99.90;;;8.34;70.51;96460.16;4986371;28;20039;-47
2021/12/29 01:36:56;;;;;;;2.20;1.03;;;8.80;99.90;;;8.27;70.54;96444.09;4987227;28;20117;-46
2021/12/29 01:39:24;;;;;;;1.73;1.07;;;8.80;99.90;;;8.36;70.18;96459.97;4985174;28;20050;-47
2021/12/29 01:41:56;;;;;;;3.03;1.37;;;8.90;99.90;;;8.39;70.42;96444.50;4986250;28;20423;-49
2021/12/29 01:44:27;;;;;;;3.63;0.83;;;8.90;99.90;;;8.36;70.38;96460.78;4986589;28;20681;-45
2021/12/29 01:46:57;;;;;;;2.03;0.80;;;8.90;99.90;;;8.39;70.02;96471.03;4986785;28;20052;-46
2021/12/29 01:49:26;;;;;;;2.77;0.80;;;8.90;99.90;;;8.36;70.07;96486.50;4987611;28;20281;-46
2021/12/29 01:52:04;;;;;;;3.63;1.80;;;8.90;99.90;;;8.38;70.32;96482.66;4986662;28;20205;-45
2021/12/29 01:54:35;;;;;;;3.60;0.77;;;8.90;99.90;;;8.43;69.93;96493.59;4988370;28;20431;-45
2021/12/29 01:57:07;;;;;;;7.60;2.57;;;8.90;99.90;;;8.37;70.00;96501.38;4986855;28;20046;-46
2021/12/29 01:59:35;;;;;;;1.90;1.07;;;8.80;99.90;;;8.33;69.98;96521.31;4987869;28;20054;-49
2021/12/29 02:02:04;;;;;;;3.17;1.10;;;8.80;99.90;;;8.37;69.86;96482.81;4987095;28;20056;-44
2021/12/29 02:04:32;;;;;;;1.90;0.87;;;8.80;99.90;;;8.27;69.99;96506.91;5002186;28;20061;-46
2021/12/29 02:07:04;;;;;;;3.10;1.30;;;8.80;99.90;;;8.28;70.04;96511.22;4987695;28;20054;-47
2021/12/29 02:09:32;;;;;;;3.03;0.80;;;8.80;99.90;;;8.38;70.01;96540.19;4986454;28;20053;-46
2021/12/29 02:12:01;;;;;;;3.33;1.70;;;8.80;99.90;;;8.29;69.75;96507.56;4986494;28;20062;-45
2021/12/29 02:14:30;;;;;;;1.27;1.00;;;8.80;99.90;;;8.42;70.09;96513.16;4986087;28;20054;-45
2021/12/29 02:16:59;;;;;;;1.47;0.93;;;8.90;99.90;;;8.51;69.84;96521.91;4986290;28;20064;-45
2021/12/29 02:19:27;;;;;;;2.50;1.03;;;8.90;99.90;;;8.47;69.59;96528.53;4987611;28;20053;-47
2021/12/29 02:22:13;;;;;;;2.47;0.90;;;8.90;99.90;;;8.50;69.75;96543.28;5002184;28;20061;-45
2021/12/29 02:24:44;;;;;;;1.77;0.57;;;8.90;99.90;;;8.46;69.92;96550.78;4986007;28;20050;-44
2021/12/29 02:27:12;;;;;;;3.67;1.03;;;8.90;99.90;;;8.47;69.92;96558.56;4986339;28;20248;-47
2021/12/29 02:29:42;;;;;;;1.37;0.90;;;8.90;99.90;;;8.42;70.03;96562.72;4986823;28;20094;-45
2021/12/29 02:32:09;;;;;;;2.37;1.00;;;8.80;99.90;;;8.53;70.18;96582.72;4987471;28;20046;-45
2021/12/29 02:34:37;;;;;;;4.03;1.10;;;8.90;99.90;;;8.39;70.21;96571.00;4986647;28;20378;-45
2021/12/29 02:37:07;;;;;;;2.07;0.70;;;8.80;99.90;;;8.43;70.16;96574.97;4985538;28;20054;-46
2021/12/29 02:39:37;;;;;;;3.87;0.97;;;8.90;99.90;;;8.46;70.34;96582.59;4986705;28;20062;-45
2021/12/29 02:42:06;;;;;;;4.63;1.00;;;8.90;99.90;;;8.54;70.14;96585.19;4989432;28;20121;-45
2021/12/29 02:44:40;;;;;;;3.73;1.77;;;8.90;99.90;;;8.50;70.20;96618.38;4990182;28;20060;-49
2021/12/29 02:47:10;;;;;;;2.97;1.45;;;8.90;99.90;;;8.53;70.30;96617.19;4990274;28;20049;-45
2021/12/29 02:49:38;;;;;;;1.70;1.03;;;8.90;99.90;;;8.51;70.46;96605.94;4990847;28;20064;-44
2021/12/29 02:52:08;;;;;;;3.03;0.93;;;8.90;99.90;;;8.40;71.06;96607.13;4991592;28;20058;-43
2021/12/29 02:54:37;;;;;;;2.87;0.90;;;8.80;99.90;;;8.50;70.99;96621.03;4989586;28;20058;-44
2021/12/29 02:57:05;;;;;;;3.40;1.07;;;8.80;99.90;;;8.48;71.15;96623.03;4990596;28;20054;-47
2021/12/29 02:59:34;;;;;;;3.60;1.00;;;8.90;99.90;;;8.43;71.50;96628.88;4990347;28;20064;-45
2021/12/29 03:02:02;;;;;;;3.13;0.80;;;8.80;99.90;;;8.44;71.42;96629.69;4990868;28;20097;-45
2021/12/29 03:04:30;;;;;;;3.23;1.00;;;8.80;99.90;;;8.47;71.40;96645.25;4991565;28;20062;-45
2021/12/29 03:06:58;;;;;;;5.60;1.33;;;8.80;99.90;;;8.45;71.50;96636.63;4990510;28;20046;-45
2021/12/29 03:09:26;;;;;;;3.03;1.07;;;8.80;99.90;;;8.35;71.81;96657.22;4991580;28;20064;-45
2021/12/29 03:11:55;;;;;;;3.33;1.03;;;8.70;99.90;;;8.45;71.70;96663.16;4990093;28;20065;-48
2021/12/29 03:14:25;;;;;;;4.50;1.10;;;8.80;99.90;;;8.51;71.45;96666.94;4990077;28;20046;-44
2021/12/29 03:16:53;;;;;;;3.60;1.40;;;8.90;99.90;;;8.37;72.28;96668.47;4989926;28;20056;-47
2021/12/29 03:19:20;;;;;;;4.10;1.50;;;8.80;99.90;;;8.45;71.93;96679.91;4990892;28;20060;-48
2021/12/29 03:21:50;;;;;;;3.03;1.00;;;8.80;99.90;;;8.39;72.10;96653.22;4990229;28;20051;-47
2021/12/29 03:24:20;;;;;;;1.60;0.87;;;8.70;99.90;;;8.50;71.94;96657.34;4991497;28;20058;-44
2021/12/29 03:26:48;;;;;;;3.83;1.17;;;8.70;99.90;;;8.54;71.91;96658.66;4990729;28;20054;-48
2021/12/29 03:29:16;;;;;;;1.63;0.90;;;8.80;99.90;;;8.53;71.98;96659.66;4989236;28;20121;-46
2021/12/29 03:31:45;;;;;;;4.73;1.27;;;8.80;99.90;;;8.48;71.92;96661.00;4989041;28;20046;-46
2021/12/29 03:34:15;;;;;;;1.97;1.10;;;8.80;99.90;;;8.49;72.34;96653.84;4991443;28;20062;-45
2021/12/29 03:36:43;;;;;;;3.07;1.70;;;8.70;99.90;;;8.40;71.97;96666.31;4990396;28;20415;-46
2021/12/29 03:39:11;;;;;;;3.63;1.73;;;8.70;99.90;;;8.36;72.19;96672.13;4988896;28;20054;-50
2021/12/29 03:41:39;;;;;;;1.27;0.80;;;8.70;99.90;;;8.40;72.36;96686.69;4989085;28;20257;-48
2021/12/29 03:44:07;;;;;;;2.17;1.07;;;8.70;99.90;;;8.51;72.14;96675.75;4990253;28;20240;-48
2021/12/29 03:46:39;;;;;;;2.23;0.80;;;8.80;99.90;;;8.36;72.26;96675.59;4989200;28;20054;-45
2021/12/29 03:49:07;;;;;;;2.60;1.13;;;8.70;99.90;;;8.44;72.15;96682.75;4989921;28;20060;-46
2021/12/29 03:51:35;;;;;;;2.17;1.10;;;8.70;99.90;;;8.47;72.25;96687.69;4988410;28;20244;-48
2021/12/29 03:54:05;;;;;;;2.47;1.13;;;8.70;99.90;;;8.44;72.17;96693.34;4988803;28;20056;-46
2021/12/29 03:56:33;;;;;;;2.77;1.30;;;8.70;99.90;;;8.38;72.26;96683.41;4988173;28;20066;-46
2021/12/29 03:59:01;;;;;;;1.17;0.63;;;8.70;99.90;;;8.47;72.05;96672.63;4989698;28;20058;-47
2021/12/29 04:01:29;;;;;;;0.90;0.73;;;8.70;99.90;;;8.49;72.17;96685.69;4988467;28;20046;-44
2021/12/29 04:03:57;;;;;;;1.67;0.80;;;8.80;99.90;;;8.50;72.07;96687.34;4988230;28;20050;-47
2021/12/29 04:06:25;;;;;;;1.73;1.00;;;8.70;99.90;;;8.60;71.77;96697.75;4989758;28;20057;-47
2021/12/29 04:08:53;;;;;;;0.90;0.50;;;8.80;99.90;;;8.59;71.79;96675.72;4988920;28;20391;-45
2021/12/29 04:11:21;;;;;;;0.83;0.50;;;8.80;99.90;;;8.43;71.66;96687.22;4989490;28;20050;-45
2021/12/29 04:13:50;;;;;;;1.93;0.70;;;8.70;99.90;;;8.61;71.67;96681.69;5003615;28;20043;-48
2021/12/29 04:16:18;;;;;;;2.37;0.60;;;8.80;99.90;;;8.56;71.32;96691.16;4989643;28;20054;-45
2021/12/29 04:19:14;;;;;;;1.17;0.70;;;8.80;99.90;;;8.61;71.29;96694.13;4987718;28;20268;-44
2021/12/29 04:21:45;;;;;;;1.47;0.77;;;8.80;99.90;;;8.67;71.12;96702.22;4987621;28;20076;-44
2021/12/29 04:24:14;;;;;;;1.23;0.80;;;8.90;99.90;;;8.74;71.07;96706.81;4988033;28;20341;-44
2021/12/29 04:26:42;;;;;;;1.37;0.30;;;8.90;99.90;;;8.70;71.01;96716.13;4988600;28;20592;-45
2021/12/29 04:29:13;;;;;;;1.50;0.63;;;8.90;99.90;;;8.70;71.06;96732.88;4988823;28;20577;-44
2021/12/29 04:31:42;;;;;;;0.30;0.30;;;8.90;99.90;;;8.70;70.61;96732.06;4988224;28;20125;-46
2021/12/29 04:34:11;;;;;;;2.53;0.60;;;8.90;99.90;;;8.65;70.94;96727.28;4988258;28;20076;-45
2021/12/29 04:36:38;;;;;;;1.80;0.70;;;8.90;99.90;;;8.76;70.93;96723.41;4988281;28;20050;-47
2021/12/29 04:39:06;;;;;;;1.00;0.40;;;8.90;99.90;;;8.68;70.70;96737.53;4988372;28;20050;-44
2021/12/29 04:41:35;;;;;;;0.57;0.30;;;8.90;99.90;;;8.56;70.86;96717.69;4988453;28;20062;-45
2021/12/29 04:44:03;;;;;;;0.97;0.60;;;8.80;99.90;;;8.62;71.03;96735.56;4988342;28;20237;-45
2021/12/29 04:46:39;;;;;;;2.03;0.70;;;8.80;99.90;;;8.57;71.02;96735.22;4988154;28;20054;-44
2021/12/29 04:49:12;;;;;;;1.37;0.40;;;8.80;99.90;;;8.57;71.18;96737.88;4988230;28;20052;-45
2021/12/29 04:51:55;;;;;;;1.73;0.60;;;8.80;99.90;;;8.54;71.33;96746.22;4987511;28;20054;-44
2021/12/29 04:54:23;;;;;;;0.60;0.43;;;8.80;99.90;;;8.60;71.33;96756.94;4988298;28;20050;-47
2021/12/29 04:56:52;;;;;;;3.13;1.20;;;8.80;99.90;;;8.52;71.61;96762.28;4988170;28;20054;-46
2021/12/29 04:59:20;;;;;;;0.43;0.40;;;8.80;99.90;;;8.62;71.48;96756.78;4987941;28;20050;-46
2021/12/29 05:01:49;;;;;;;1.50;0.70;;;8.80;99.90;;;8.64;71.49;96770.72;4989073;28;20074;-43
2021/12/29 05:04:22;;;;;;;0.60;0.50;;;8.90;99.90;;;8.65;71.72;96764.41;4987830;28;20068;-46
2021/12/29 05:09:36;;;;;;;1.73;0.50;;;8.90;99.90;;;8.67;71.45;96765.06;4989118;28;20054;-45
2021/12/29 05:12:05;;;;;;;1.53;0.70;;;8.90;99.90;;;8.56;71.62;96776.03;4987385;28;20252;-46
2021/12/29 05:14:33;;;;;;;1.23;0.60;;;8.80;99.90;;;8.54;72.09;96786.81;4987553;28;20393;-44
2021/12/29 05:17:02;;;;;;;1.70;1.27;;;8.80;99.90;;;8.45;73.56;96801.94;4988454;28;20057;-45
2021/12/29 05:19:30;;;;;;;1.67;0.60;;;8.70;99.90;;;8.40;73.69;96788.31;4989099;28;20050;-44
2021/12/29 05:21:58;;;;;;;1.27;0.60;;;8.60;99.90;;;8.43;74.08;96795.97;4987551;28;20042;-44
2021/12/29 05:24:26;;;;;;;2.40;0.70;;;8.60;99.90;;;8.38;74.28;96806.22;4986908;28;20058;-47
2021/12/29 05:26:54;;;;;;;1.50;0.77;;;8.50;99.90;;;8.44;74.10;96805.56;4988707;28;20065;-43
2021/12/29 05:29:24;;;;;;;1.07;0.63;;;8.50;99.90;;;8.43;74.11;96790.66;4987720;28;20064;-45
2021/12/29 05:31:52;;;;;;;2.00;0.77;;;8.60;99.90;;;8.50;74.07;96795.28;4986953;28;20375;-43
2021/12/29 05:34:20;;;;;;;2.53;0.70;;;8.60;99.90;;;8.46;74.43;96787.66;4986612;28;20046;-48
2021/12/29 05:36:48;;;;;;;2.90;1.30;;;8.70;99.90;;;8.58;74.01;96793.44;4988143;28;20054;-45
2021/12/29 05:39:16;;;;;;;4.47;1.77;;;8.70;99.90;;;8.62;74.03;96805.38;4989228;28;20383;-45
2021/12/29 05:41:44;;;;;;;2.03;1.27;;;8.80;99.90;;;8.71;73.67;96806.19;4986816;28;20046;-44
2021/12/29 05:44:12;;;;;;;1.13;0.73;;;8.90;99.90;;;8.73;73.81;96803.38;4988424;28;20244;-44
2021/12/29 05:46:40;;;;;;;3.50;3.20;;;8.80;99.90;;;8.73;73.53;96806.84;4986789;28;20349;-46
2021/12/29 05:49:08;;;;;;;5.93;3.20;;;8.90;99.90;;;8.72;73.38;96812.31;4987874;28;20358;-45
2021/12/29 05:51:37;;;;;;;5.47;4.30;;;8.90;99.90;;;8.76;73.59;96818.94;4986469;28;20058;-45
2021/12/29 05:54:04;;;;;;;2.43;1.80;;;8.80;99.90;;;8.68;73.52;96817.13;4986483;28;20060;-45
2021/12/29 05:56:32;;;;;;;2.70;1.60;;;8.80;99.90;;;8.73;73.54;96821.94;4987173;28;20372;-44
2021/12/29 05:59:01;;;;;;;2.83;1.90;;;8.80;99.90;;;8.71;73.42;96819.47;4986482;28;20237;-45
2021/12/29 06:01:31;;;;;;;4.10;0.97;;;8.80;99.90;;;8.75;73.27;96823.44;4986693;28;20062;-45
2021/12/29 06:03:59;;;;;;;3.07;1.07;;;8.90;99.90;;;8.81;73.36;96825.41;4986955;28;20046;-45
2021/12/29 06:06:27;;;;;;;3.17;0.90;;;8.90;99.90;;;8.73;73.37;96825.41;4988186;28;20065;-45
2021/12/29 06:08:55;;;;;;;5.17;1.23;;;8.90;99.90;;;8.77;73.23;96834.69;4985861;28;20375;-44
2021/12/29 06:11:22;;;;;;;3.30;1.07;;;8.80;99.90;;;8.78;73.25;96835.50;5003232;28;20055;-47
2021/12/29 06:13:50;;;;;;;1.93;1.73;;;8.80;99.90;;;8.77;73.13;96833.88;4987059;28;20054;-46
2021/12/29 06:16:18;;;;;;;4.53;1.33;;;8.90;99.90;;;8.79;73.29;96837.19;4990328;28;20256;-45
2021/12/29 06:18:46;;;;;;;2.40;1.27;;;8.90;99.90;;;8.72;73.12;96849.47;4990238;28;20061;-45
2021/12/29 06:21:16;;;;;;;4.60;1.77;;;8.90;99.90;;;8.73;73.18;96843.19;4991791;28;20062;-47
2021/12/29 06:23:46;;;;;;;4.37;0.90;;;8.80;99.90;;;8.81;72.94;96836.00;4990247;28;20108;-45
2021/12/29 06:26:15;;;;;;;2.80;0.87;;;8.90;99.90;;;8.77;72.62;96847.16;4991316;28;20390;-50
2021/12/29 06:28:44;;;;;;;2.07;1.20;;;8.90;99.90;;;8.74;72.82;96840.34;4989961;28;20062;-46
2021/12/29 06:31:12;;;;;;;1.70;1.00;;;8.90;99.90;;;8.84;72.43;96848.09;4991166;28;20058;-44
2021/12/29 06:33:40;;;;;;;5.13;1.30;;;8.90;99.90;;;8.86;72.26;96849.63;4990203;28;20042;-45
2021/12/29 06:36:08;;;;;;;3.60;1.10;;;9.00;99.90;;;8.89;72.45;96851.09;4990849;28;20368;-47
2021/12/29 06:38:36;;;;;;;2.97;1.60;;;9.00;99.90;;;8.93;72.12;96852.41;4990567;28;20057;-44
2021/12/29 06:41:04;;;;;;;2.57;1.10;;;9.00;99.90;;;8.94;71.93;96859.38;4990977;28;20440;-45
2021/12/29 06:43:31;;;;;;;5.13;1.37;;;9.10;99.90;;;8.91;71.93;96858.88;4991184;28;20054;-45
2021/12/29 06:45:59;;;;;;;2.93;0.80;;;9.00;99.90;;;8.92;72.17;96869.34;4990141;28;20062;-49
2021/12/29 06:48:27;;;;;;;4.33;0.90;;;9.00;99.90;;;8.87;71.87;96861.88;4990113;28;20058;-44
2021/12/29 06:50:55;;;;;;;2.00;1.33;;;9.00;99.90;;;8.90;71.94;96870.50;4990311;28;20050;-44
2021/12/29 06:53:23;;;;;;;3.87;1.10;;;9.00;99.90;;;8.86;71.57;96878.00;4990527;28;20054;-44
2021/12/29 06:55:50;;;;;;;3.30;1.43;;;9.00;99.90;;;8.80;71.77;96879.50;4990143;28;20054;-44
2021/12/29 06:58:18;;;;;;;4.13;1.20;;;8.90;99.90;;;8.81;71.51;96878.47;4990099;28;20057;-44
2021/12/29 07:00:46;;;;;;;4.73;0.90;;;8.90;99.90;;;8.84;71.56;96888.78;4990982;28;20050;-52
2021/12/29 07:03:14;;;;;;;3.20;1.13;;;8.90;99.90;;;8.59;71.47;96889.81;4988921;28;20058;-45
2021/12/29 07:05:42;;;;;;;1.70;1.27;;;8.80;99.90;;;8.63;71.75;96889.28;4989658;28;20214;-43
2021/12/29 07:08:10;;;;;;;2.03;1.27;;;8.80;99.90;;;8.54;72.10;96903.56;4991713;28;20054;-44
2021/12/29 07:10:40;;;;;;;2.07;0.97;;;8.80;99.90;;;8.46;71.98;96899.06;4991809;28;20076;-44
2021/12/29 07:13:09;;;;;;;5.10;1.67;;;8.70;99.90;;;8.50;71.87;96904.06;4989675;28;20044;-43
2021/12/29 07:15:37;;;;;;;3.57;1.30;;;8.70;99.90;;;8.52;71.72;96902.06;4991189;28;20046;-44
2021/12/29 07:18:05;;;;;;;2.87;1.13;;;8.70;99.90;;;8.52;71.94;96917.97;4988320;28;20411;-42
2021/12/29 07:20:33;;;;;;;1.93;0.70;;;8.70;99.90;;;8.50;71.95;96918.16;4990665;28;20511;-43
2021/12/29 07:23:00;;;;;;;0.77;0.60;;;8.70;99.90;;;8.54;71.91;96934.56;4989623;28;20061;-43
2021/12/29 07:25:29;;;;;;;3.63;1.20;;;8.70;99.90;;;8.52;72.12;96931.25;4988788;28;20068;-46
2021/12/29 07:27:57;;;;;;;1.37;0.73;;;8.70;99.90;;;8.54;72.02;96923.94;4988984;28;20052;-43
2021/12/29 07:30:25;;;;;;;3.37;1.33;;;8.70;99.90;;;8.56;72.03;96943.19;4990691;28;20052;-46
2021/12/29 07:32:52;;;;;;;2.80;1.10;;;8.70;99.90;;;8.57;71.88;96944.81;4988818;28;20057;-43
2021/12/29 07:35:21;;;;;;;2.20;0.87;;;8.70;99.90;;;8.54;71.91;96953.97;4989026;28;20042;-42
2021/12/29 07:37:49;;;;;;;1.17;0.77;;;8.70;99.90;;;8.53;72.29;96954.97;4989405;28;20050;-41
2021/12/29 07:40:17;;;;;;;2.10;0.80;;;8.70;99.90;;;8.56;72.26;96967.06;4989213;28;20054;-45
2021/12/29 07:42:46;;;;;;;5.07;1.00;;;8.70;99.90;;;8.61;72.03;96970.06;4989173;28;20050;-43
2021/12/29 07:45:14;;;;;;;3.87;1.57;;;8.70;99.90;;;8.57;71.72;96972.22;4989705;28;20076;-42
2021/12/29 07:47:48;;;;;;;3.57;1.67;;;8.70;99.90;;;8.46;71.72;96980.50;4988642;28;20046;-42
2021/12/29 07:50:18;;;;;;;2.17;0.95;;;8.50;99.90;;;8.60;71.86;96973.69;4987926;28;20275;-41
2021/12/29 07:52:58;;;;;;;2.40;1.30;;;8.70;99.90;;;8.67;71.44;96972.06;4989062;28;20050;-43
2021/12/29 07:55:26;;;;;;;1.30;0.67;;;8.80;99.90;;;8.65;71.84;96976.69;4988122;28;20060;-43
2021/12/29 07:57:55;;;;;;;2.93;1.37;;;8.80;99.90;;;8.65;71.58;96977.50;4991041;28;20362;-44
2021/12/29 08:00:23;;;;;;;4.47;1.20;;;8.80;99.90;;;8.76;71.69;96978.16;4989637;28;20052;-45
2021/12/29 08:02:54;;;;;;;4.40;1.13;;;8.90;99.90;;;8.76;71.55;96987.00;4988373;28;20050;-46
2021/12/29 08:05:23;;;;;;;3.90;1.77;;;8.90;99.90;;;8.81;71.30;96986.47;4988671;28;20068;-45
2021/12/29 08:07:51;;;;;;;2.67;1.10;;;8.90;99.90;;;8.75;71.40;96992.44;4988140;28;20252;-44
2021/12/29 08:10:19;;;;;;;1.60;0.60;;;8.90;99.90;;;8.77;71.43;96991.28;4989409;28;20042;-47
2021/12/29 08:12:47;;;;;;;3.57;0.80;;;8.90;99.90;;;8.80;71.22;96996.28;4988699;28;20056;-46
2021/12/29 08:15:15;;;;;;;1.27;0.80;;;8.90;99.90;;;8.79;70.74;97010.53;4988163;28;20054;-48
2021/12/29 08:17:48;;;;;;;3.43;1.20;;;8.90;99.90;;;8.82;71.20;97001.38;4988732;28;20061;-45
2021/12/29 08:20:15;;;;;;;1.60;0.90;;;8.90;99.90;;;8.91;71.26;97002.22;4987576;28;20058;-44
2021/12/29 08:22:43;;;;;;;1.20;0.70;;;9.00;99.90;;;8.95;70.89;97000.91;4988849;28;20361;-44
2021/12/29 08:25:11;;;;;;;3.30;1.57;;;9.10;99.90;;;8.95;70.67;97014.19;4987663;28;20086;-46
2021/12/29 08:27:39;;;;;;;3.57;1.10;;;9.10;99.90;;;8.85;70.54;97007.19;4988689;28;20060;-45
2021/12/29 08:30:07;;;;;;;1.07;0.70;;;9.10;99.90;;;8.99;70.64;97005.69;4988909;28;20056;-47
2021/12/29 08:32:35;;;;;;;1.87;0.90;;;9.10;99.90;;;8.96;69.86;97002.56;4987513;28;20058;-46
2021/12/29 08:35:05;;;;;;;1.37;0.83;;;9.10;99.90;;;9.03;70.56;97007.06;4987840;28;20052;-46
2021/12/29 08:37:33;;;;;;;2.40;0.80;;;9.20;99.90;;;9.11;70.44;97000.91;4988622;28;20056;-45
2021/12/29 08:40:03;;;;;;;4.60;1.37;;;9.30;99.90;;;9.14;70.10;96997.91;4989472;28;20256;-45
2021/12/29 08:42:31;;;;;;;3.10;1.57;;;9.30;99.90;;;9.19;70.13;96992.06;4987883;28;20050;-45
2021/12/29 08:45:01;;;;;;;2.20;1.00;;;9.40;99.90;;;9.22;69.63;96994.41;4987219;28;20058;-44
2021/12/29 08:47:29;;;;;;;4.50;0.90;;;9.40;99.90;;;9.29;70.06;96991.91;4988065;28;20060;-45
2021/12/29 08:49:57;;;;;;;2.97;0.90;;;9.40;99.90;;;9.29;69.74;96983.94;4987840;28;20069;-42
2021/12/29 08:52:25;;;;;;;2.83;1.23;;;9.40;99.90;;;9.23;69.37;96983.63;4988546;28;20069;-45
2021/12/29 08:54:53;;;;;;;1.87;0.90;;;9.40;99.90;;;9.15;68.15;96980.97;4987695;28;20341;-43
2021/12/29 08:57:20;;;;;;;1.33;0.70;;;9.30;99.90;;;9.13;69.00;96998.91;4988385;28;20100;-43
2021/12/29 08:59:49;;;;;;;3.30;1.20;;;9.30;99.90;;;9.21;69.14;97000.72;4992579;28;20049;-44
2021/12/29 09:02:21;;;;;;;1.47;0.93;;;9.30;99.90;;;9.25;69.06;96986.13;5013996;28;20056;-45
2021/12/29 09:04:49;;;;;;;3.30;1.37;;;9.40;99.90;;;9.19;68.96;96997.38;5014591;28;20373;-43
2021/12/29 09:07:17;;;;;;;3.10;1.07;;;9.40;99.90;;;9.19;68.61;97006.19;5008600;28;20374;-43
2021/12/29 09:09:45;;;;;;;4.00;1.63;;;9.40;99.90;;;9.23;69.00;97004.88;5014728;28;20046;-43
2021/12/29 09:12:13;;;;;;;2.33;1.03;;;9.30;99.90;;;9.26;69.23;96999.19;5016697;28;20044;-43
2021/12/29 09:14:41;;;;;;;6.30;1.23;;;9.40;99.90;;;9.25;69.33;96996.72;5017064;28;20076;-45
2021/12/29 09:17:08;;;;;;;2.73;0.87;;;9.40;99.90;;;9.27;69.03;97000.88;5016872;28;20336;-44
2021/12/29 09:19:40;;;;;;;5.07;2.20;;;9.40;99.90;;;9.37;69.14;97013.97;5015591;28;20101;-43
2021/12/29 09:22:12;;;;;;;3.57;1.33;;;9.50;99.90;;;9.40;68.50;97010.13;5015598;28;20072;-43
2021/12/29 09:24:42;;;;;;;5.50;2.13;;;9.60;99.90;;;9.45;68.95;96999.84;5020854;28;20037;-43
2021/12/29 09:27:10;;;;;;;2.73;2.03;;;9.60;99.90;;;9.46;69.18;96998.84;5015534;28;20042;-45
2021/12/29 09:29:38;;;;;;;5.07;1.80;;;9.60;99.90;;;9.46;69.06;96996.19;5015643;28;20046;-45
2021/12/29 09:32:06;;;;;;;3.70;1.30;;;9.60;99.90;;;9.53;69.25;97004.31;5016112;28;20041;-45
2021/12/29 09:34:35;;;;;;;3.67;1.67;;;9.60;99.90;;;9.60;68.90;97019.41;5016014;28;20054;-45
2021/12/29 09:37:05;;;;;;;4.80;1.83;;;9.70;99.90;;;9.62;69.02;97020.06;5018669;28;20281;-44
2021/12/29 09:39:33;;;;;;;3.43;1.50;;;9.70;99.90;;;9.64;68.89;97030.53;5032165;28;20037;-45
2021/12/29 09:42:01;;;;;;;5.83;1.80;;;9.80;99.90;;;9.69;68.76;97036.13;5017387;28;20052;-43
2021/12/29 09:44:31;;;;;;;7.20;1.53;;;9.80;99.90;;;9.70;68.98;97035.16;5016992;28;20059;-44
2021/12/29 09:46:59;;;;;;;3.03;1.20;;;9.80;99.90;;;9.75;68.83;97039.94;5016848;28;20363;-45
2021/12/29 09:49:27;;;;;;;3.33;1.30;;;9.90;99.90;;;9.80;68.79;97045.59;5014498;28;20348;-44
2021/12/29 09:51:55;;;;;;;4.57;2.77;;;9.90;99.90;;;9.79;68.59;97047.44;5016285;28;20042;-46
2021/12/29 09:54:23;;;;;;;1.90;1.40;;;9.90;99.90;;;9.84;68.56;97049.56;5016113;28;20064;-43
2021/12/29 09:56:51;;;;;;;5.23;1.83;;;9.90;99.90;;;9.84;68.49;97055.69;5016995;28;20054;-45
2021/12/29 09:59:19;;;;;;;4.20;1.63;;;10.00;99.90;;;9.86;68.46;97060.84;5018035;28;20370;-47
2021/12/29 10:01:47;;;;;;;2.43;1.33;;;10.00;99.90;;;9.86;68.25;97061.66;5016584;28;20342;-44
2021/12/29 10:04:16;;;;;;;2.73;1.87;;;10.00;99.90;;;9.86;68.08;97058.19;5017706;28;20058;-44
2021/12/29 10:06:44;;;;;;;3.90;2.47;;;10.00;99.90;;;9.88;68.42;97050.06;5015984;28;20075;-44
2021/12/29 10:09:17;;;;;;;6.10;1.80;;;10.00;99.90;;;9.88;68.20;97050.06;5015770;28;20062;-46
2021/12/29 10:11:46;;;;;;;2.43;1.70;;;10.00;99.90;;;9.91;67.93;97041.75;5017268;28;20055;-45
2021/12/29 10:14:17;;;;;;;1.80;1.13;;;10.00;99.90;;;9.88;68.23;97028.78;5018426;28;20042;-44
2021/12/29 10:16:49;;;;;;;2.23;0.80;;;10.00;99.90;;;9.92;67.87;97030.91;5018164;28;20042;-45
2021/12/29 10:19:17;;;;;;;3.20;1.80;;;10.00;99.90;;;9.95;68.09;97025.25;5017811;28;20377;-45
2021/12/29 10:21:49;;;;;;;3.47;0.70;;;10.00;99.90;;;9.95;67.92;97019.13;5017655;28;20362;-44
2021/12/29 10:24:19;;;;;;;2.20;0.73;;;10.10;99.90;;;9.97;68.06;97022.44;5032581;28;20050;-44
2021/12/29 10:26:49;;;;;;;3.03;1.37;;;10.10;99.90;;;9.99;67.64;97021.25;5015701;28;20061;-44
2021/12/29 10:29:21;;;;;;;3.27;1.63;;;10.10;99.90;;;10.04;67.78;97020.72;5018334;28;20050;-45
2021/12/29 10:31:58;;;;;;;7.77;3.20;;;10.10;99.90;;;10.10;68.06;97021.88;5019250;28;20053;-45
2021/12/29 10:34:29;;;;;;;5.67;2.77;;;10.20;99.90;;;10.12;67.73;97012.72;5016696;28;20049;-45
2021/12/29 10:37:04;;;;;;;6.67;3.27;;;10.20;99.90;;;10.14;67.74;97018.72;5016580;28;20080;-47
2021/12/29 10:39:43;;;;;;;4.67;2.00;;;10.20;99.90;;;10.15;67.70;97014.22;5015902;28;20046;-47
2021/12/29 10:42:24;;;;;;;5.83;2.20;;;10.20;99.90;;;10.19;68.18;97008.34;5017586;28;20271;-47
2021/12/29 10:45:00;;;;;;;4.30;1.60;;;10.30;99.90;;;10.23;68.02;97007.00;5016339;28;20049;-45